Time;durP1;ratioP1;P1;durP2;ratioP2;P2;SDS_P1;SDS_P2;PMS_P1;PMS_P2;Temp;Humidity;BMP_temperature;BMP_pressure;BME280_temperature;BME280_humidity;BME280_pressure;Samples;Min_cycle;Max_cycle;Signal;HPM_P1;HPM_P2
2023/12/14 00:02:03;;;;;;;4.10;2.00;;;7.00;88.00;;;;;;5033233;28;20183;-73
2023/12/14 00:04:28;;;;;;;2.20;1.70;;;7.00;88.10;;;;;;5042815;28;20176;-73
2023/12/14 00:06:54;;;;;;;3.20;1.70;;;7.00;88.30;;;;;;5043689;28;20205;-73
2023/12/14 00:09:19;;;;;;;2.07;1.50;;;7.10;88.60;;;;;;5045734;28;20223;-72
2023/12/14 00:11:45;;;;;;;7.13;1.73;;;7.10;88.40;;;;;;5038961;28;20189;-74
2023/12/14 00:14:10;;;;;;;6.93;1.80;;;7.20;88.40;;;;;;5036052;28;20181;-74
2023/12/14 00:16:36;;;;;;;5.27;1.70;;;7.20;88.10;;;;;;5046481;28;20184;-74
2023/12/14 00:19:02;;;;;;;2.10;1.60;;;7.20;87.80;;;;;;5044033;28;20199;-73
2023/12/14 00:21:28;;;;;;;4.33;1.40;;;7.10;87.60;;;;;;5039528;28;20270;-72
2023/12/14 00:23:53;;;;;;;3.17;1.50;;;7.10;87.40;;;;;;5044307;28;20428;-74
2023/12/14 00:26:19;;;;;;;4.60;1.47;;;7.10;87.40;;;;;;5041891;28;20181;-72
2023/12/14 00:28:45;;;;;;;2.87;1.80;;;7.10;87.40;;;;;;5040201;28;20553;-72
2023/12/14 00:31:10;;;;;;;4.43;2.20;;;7.10;87.40;;;;;;5041240;28;20207;-73
2023/12/14 00:33:36;;;;;;;3.17;1.73;;;7.00;87.40;;;;;;5048615;28;20222;-73
2023/12/14 00:36:01;;;;;;;3.43;1.80;;;7.00;87.70;;;;;;5045178;28;20184;-73
2023/12/14 00:38:27;;;;;;;4.10;2.27;;;6.90;87.80;;;;;;5052127;28;20204;-74
2023/12/14 00:40:52;;;;;;;4.10;2.00;;;7.00;88.00;;;;;;5039540;28;20218;-72
2023/12/14 00:43:18;;;;;;;3.53;1.90;;;7.00;88.00;;;;;;5041131;28;20657;-73
2023/12/14 00:45:44;;;;;;;3.13;1.50;;;7.10;88.00;;;;;;5047578;28;20254;-74
2023/12/14 00:48:09;;;;;;;3.07;2.00;;;7.20;88.00;;;;;;5038907;28;20196;-72
2023/12/14 00:50:35;;;;;;;4.40;2.00;;;7.10;87.70;;;;;;5039629;28;20288;-74
2023/12/14 00:53:00;;;;;;;2.20;1.90;;;7.10;87.80;;;;;;5044709;28;20669;-72
2023/12/14 00:55:26;;;;;;;5.60;2.63;;;7.10;87.80;;;;;;5041206;28;20203;-72
2023/12/14 00:57:51;;;;;;;5.93;2.73;;;7.10;87.70;;;;;;5039294;28;20688;-73
2023/12/14 01:00:18;;;;;;;4.60;2.23;;;7.10;87.80;;;;;;5039845;28;20197;-73
2023/12/14 01:02:44;;;;;;;4.47;2.40;;;7.10;87.80;;;;;;5046491;28;20189;-73
2023/12/14 01:05:09;;;;;;;5.40;2.60;;;7.20;88.00;;;;;;5041390;28;20956;-73
2023/12/14 01:07:35;;;;;;;5.63;2.27;;;7.30;87.80;;;;;;5048430;28;20814;-73
2023/12/14 01:10:03;;;;;;;5.03;2.40;;;7.20;87.60;;;;;;5039837;28;20224;-72
2023/12/14 01:12:28;;;;;;;3.40;2.20;;;7.30;87.40;;;;;;5044029;28;20927;-74
2023/12/14 01:14:54;;;;;;;3.60;2.27;;;7.30;87.30;;;;;;5042305;28;20418;-72
2023/12/14 01:17:19;;;;;;;2.50;1.80;;;7.30;87.10;;;;;;5043588;28;20265;-73
2023/12/14 01:19:45;;;;;;;4.80;2.67;;;7.20;86.90;;;;;;5036168;28;20212;-72
2023/12/14 01:22:10;;;;;;;6.37;2.37;;;7.20;86.90;;;;;;5039051;28;20180;-72
2023/12/14 01:24:36;;;;;;;3.90;2.57;;;7.30;87.10;;;;;;5051966;28;20645;-73
2023/12/14 01:27:02;;;;;;;6.00;2.93;;;7.30;87.00;;;;;;5049580;28;20239;-73
2023/12/14 01:29:28;;;;;;;5.60;2.50;;;7.30;86.80;;;;;;5044244;28;20208;-72
2023/12/14 01:31:53;;;;;;;4.77;2.40;;;7.20;86.80;;;;;;5043114;28;20803;-77
2023/12/14 01:34:19;;;;;;;5.30;2.43;;;7.10;86.90;;;;;;5051513;28;20181;-74
2023/12/14 01:36:44;;;;;;;6.43;2.63;;;7.10;87.10;;;;;;5046813;28;20192;-73
2023/12/14 01:39:10;;;;;;;4.87;2.80;;;7.00;87.40;;;;;;5048161;28;20201;-73
2023/12/14 01:41:35;;;;;;;5.30;2.50;;;6.90;87.40;;;;;;5043073;28;20773;-73
2023/12/14 01:44:01;;;;;;;4.63;2.63;;;6.90;87.70;;;;;;5042023;28;20180;-74
2023/12/14 01:46:27;;;;;;;4.03;2.73;;;6.90;88.00;;;;;;5047078;28;20185;-74
2023/12/14 01:48:52;;;;;;;4.37;3.07;;;6.90;88.40;;;;;;5040385;28;20266;-74
2023/12/14 01:51:19;;;;;;;3.70;2.30;;;6.90;88.60;;;;;;5044821;28;20205;-72
2023/12/14 01:53:44;;;;;;;7.30;2.47;;;7.00;88.60;;;;;;5044036;28;20196;-73
2023/12/14 01:56:10;;;;;;;4.37;1.93;;;7.00;88.60;;;;;;5041964;28;20446;-73
2023/12/14 01:58:36;;;;;;;3.97;2.47;;;6.90;88.40;;;;;;5038080;28;20207;-74
2023/12/14 02:01:23;;;;;;;4.70;2.43;;;7.00;88.60;;;;;;5042051;28;20209;-72
2023/12/14 02:03:52;;;;;;;2.90;2.00;;;6.90;88.60;;;;;;5045154;28;20188;-74
2023/12/14 02:06:18;;;;;;;5.27;2.27;;;7.00;88.70;;;;;;5041585;28;20503;-73
2023/12/14 02:08:43;;;;;;;7.50;2.07;;;6.90;88.60;;;;;;5044059;28;20550;-73
2023/12/14 02:11:09;;;;;;;3.83;2.03;;;6.90;88.60;;;;;;5040919;28;20478;-73
2023/12/14 02:13:34;;;;;;;4.40;2.33;;;6.90;88.40;;;;;;5040997;28;20188;-73
2023/12/14 02:16:00;;;;;;;4.37;2.00;;;6.90;88.40;;;;;;5040380;28;20192;-72
2023/12/14 02:18:26;;;;;;;2.80;1.60;;;6.90;88.30;;;;;;5041737;28;20203;-73
2023/12/14 02:20:52;;;;;;;3.13;2.10;;;6.90;88.40;;;;;;5037709;28;20752;-72
2023/12/14 02:23:17;;;;;;;3.83;1.97;;;6.90;88.40;;;;;;5038388;28;20745;-72
2023/12/14 02:25:43;;;;;;;4.10;1.77;;;7.00;88.60;;;;;;5041713;28;20502;-72
2023/12/14 02:28:08;;;;;;;3.50;1.83;;;6.90;88.30;;;;;;5045034;28;20180;-73
2023/12/14 02:30:34;;;;;;;3.53;2.07;;;6.90;88.10;;;;;;5044186;28;20215;-73
2023/12/14 02:32:59;;;;;;;2.50;1.53;;;6.90;88.00;;;;;;5038253;28;20189;-72
2023/12/14 02:35:25;;;;;;;3.80;1.63;;;6.90;87.80;;;;;;5043989;28;20191;-71
2023/12/14 02:37:51;;;;;;;3.10;1.53;;;6.90;87.70;;;;;;5042800;28;20185;-72
2023/12/14 02:40:16;;;;;;;3.70;1.60;;;6.90;86.90;;;;;;5042010;28;20309;-72
2023/12/14 02:42:42;;;;;;;2.53;1.63;;;6.80;87.00;;;;;;5042611;28;20199;-73
2023/12/14 02:45:08;;;;;;;2.97;1.60;;;6.80;87.10;;;;;;5044771;28;20943;-74
2023/12/14 02:47:34;;;;;;;2.07;1.57;;;6.80;87.40;;;;;;5043683;28;20208;-74
2023/12/14 02:50:00;;;;;;;5.10;1.50;;;6.80;87.40;;;;;;5033759;28;20974;-74
2023/12/14 02:52:26;;;;;;;2.63;1.50;;;6.90;87.40;;;;;;5039280;28;20180;-73
2023/12/14 02:54:51;;;;;;;2.47;1.40;;;6.90;87.40;;;;;;5043392;28;20318;-73
2023/12/14 02:57:17;;;;;;;4.20;1.50;;;6.90;87.40;;;;;;5042240;28;20183;-73
2023/12/14 02:59:43;;;;;;;2.00;1.57;;;7.00;87.70;;;;;;5048723;28;20668;-74
2023/12/14 03:02:09;;;;;;;2.13;1.60;;;7.10;87.10;;;;;;5040866;28;20432;-74
2023/12/14 03:04:37;;;;;;;2.53;1.60;;;7.10;86.90;;;;;;5047260;28;20255;-73
2023/12/14 03:07:02;;;;;;;2.77;1.90;;;7.10;86.90;;;;;;5038615;28;20427;-74
2023/12/14 03:09:28;;;;;;;1.80;1.57;;;7.10;87.10;;;;;;5043290;28;20500;-75
2023/12/14 03:11:54;;;;;;;5.83;1.83;;;7.20;87.10;;;;;;5039091;28;20216;-73
2023/12/14 03:14:20;;;;;;;4.60;1.63;;;7.10;86.90;;;;;;5043911;28;20464;-73
2023/12/14 03:16:46;;;;;;;3.10;1.70;;;7.10;86.90;;;;;;5039285;28;20442;-74
2023/12/14 03:19:11;;;;;;;2.40;1.00;;;7.10;86.90;;;;;;5048265;28;20172;-74
2023/12/14 03:21:37;;;;;;;2.37;1.73;;;7.20;87.00;;;;;;5044335;28;20180;-73
2023/12/14 03:24:03;;;;;;;4.23;1.47;;;7.20;86.90;;;;;;5044740;28;20246;-73
2023/12/14 03:26:28;;;;;;;2.70;1.67;;;7.20;86.90;;;;;;5039629;28;20238;-73
2023/12/14 03:28:54;;;;;;;2.63;1.67;;;7.10;86.80;;;;;;5045876;28;21051;-73
2023/12/14 03:31:19;;;;;;;2.73;1.67;;;7.20;86.90;;;;;;5044815;28;20216;-73
2023/12/14 03:33:45;;;;;;;1.37;1.17;;;7.20;86.80;;;;;;5043837;28;20188;-72
2023/12/14 03:36:11;;;;;;;2.07;1.50;;;7.20;86.90;;;;;;5044045;28;20176;-74
2023/12/14 03:38:37;;;;;;;2.90;1.60;;;7.20;86.90;;;;;;5061499;28;20493;-73
2023/12/14 03:41:02;;;;;;;3.87;1.60;;;7.20;86.80;;;;;;5056339;28;20202;-75
2023/12/14 03:43:28;;;;;;;3.93;1.40;;;7.10;86.80;;;;;;5041393;28;20190;-74
2023/12/14 03:45:53;;;;;;;2.40;1.63;;;7.10;86.80;;;;;;5043031;28;20178;-75
2023/12/14 03:48:19;;;;;;;2.87;1.73;;;7.10;86.80;;;;;;5046863;28;20212;-74
2023/12/14 03:50:45;;;;;;;1.37;1.20;;;7.10;86.90;;;;;;5036811;28;20217;-74
2023/12/14 03:53:10;;;;;;;3.50;1.77;;;7.10;87.00;;;;;;5040557;28;20194;-74
2023/12/14 03:55:36;;;;;;;4.00;1.37;;;7.10;87.00;;;;;;5043109;28;20299;-74
2023/12/14 03:58:01;;;;;;;3.57;1.47;;;7.00;86.90;;;;;;5042501;28;20197;-75
2023/12/14 04:00:27;;;;;;;1.90;1.50;;;7.00;87.00;;;;;;5037110;28;20209;-74
2023/12/14 04:02:53;;;;;;;2.40;1.60;;;7.00;87.10;;;;;;5041081;28;20184;-74
2023/12/14 04:05:18;;;;;;;4.63;1.90;;;7.00;87.30;;;;;;5043232;28;20173;-74
2023/12/14 04:07:44;;;;;;;2.47;1.40;;;7.00;87.30;;;;;;5043857;28;20215;-76
2023/12/14 04:10:11;;;;;;;5.50;2.33;;;7.10;87.30;;;;;;5043732;28;20727;-74
2023/12/14 04:12:37;;;;;;;3.10;1.47;;;7.00;87.10;;;;;;5044005;28;20226;-74
2023/12/14 04:15:04;;;;;;;3.20;1.70;;;7.10;87.40;;;;;;5045568;28;20931;-74
2023/12/14 04:17:31;;;;;;;2.50;1.87;;;7.10;87.40;;;;;;5041643;28;20876;-74
2023/12/14 04:19:56;;;;;;;3.57;1.60;;;7.10;87.40;;;;;;5043061;28;20463;-74
2023/12/14 04:22:22;;;;;;;2.27;1.43;;;7.20;87.60;;;;;;5047054;28;20502;-74
2023/12/14 04:24:48;;;;;;;2.70;1.77;;;7.20;87.60;;;;;;5063281;28;20589;-75
2023/12/14 04:27:14;;;;;;;2.43;1.53;;;7.20;87.40;;;;;;5042507;28;20731;-75
2023/12/14 04:29:40;;;;;;;5.23;2.10;;;7.10;87.40;;;;;;5046103;28;20217;-75
2023/12/14 04:32:06;;;;;;;2.50;1.70;;;7.10;87.60;;;;;;5047120;28;20963;-74
2023/12/14 04:34:31;;;;;;;5.63;2.30;;;7.10;88.00;;;;;;5044774;28;20562;-74
2023/12/14 04:36:57;;;;;;;2.67;2.27;;;7.00;88.00;;;;;;5043990;28;20287;-73
2023/12/14 04:39:26;;;;;;;4.10;2.30;;;7.10;88.30;;;;;;5041788;28;20188;-73
2023/12/14 04:41:53;;;;;;;3.50;2.27;;;7.10;88.30;;;;;;5040337;28;20822;-72
2023/12/14 04:44:21;;;;;;;4.50;2.40;;;7.10;88.30;;;;;;5037846;28;20437;-74
2023/12/14 04:46:48;;;;;;;3.97;2.70;;;7.10;88.40;;;;;;5036344;28;20438;-73
2023/12/14 04:49:14;;;;;;;5.93;3.60;;;7.10;88.40;;;;;;5040600;28;20606;-73
2023/12/14 04:51:39;;;;;;;3.07;2.33;;;7.20;88.30;;;;;;5035816;28;20439;-75
2023/12/14 04:54:05;;;;;;;3.47;2.20;;;7.20;88.30;;;;;;5038525;28;20415;-73
2023/12/14 04:56:31;;;;;;;5.00;3.00;;;7.20;88.30;;;;;;5041585;28;20195;-72
2023/12/14 04:58:56;;;;;;;5.80;3.03;;;7.20;88.10;;;;;;5048890;28;20611;-74
2023/12/14 05:01:22;;;;;;;4.83;2.77;;;7.10;88.00;;;;;;5046499;28;20223;-74
2023/12/14 05:03:47;;;;;;;4.20;2.77;;;7.10;88.00;;;;;;5043898;28;20213;-73
2023/12/14 05:06:13;;;;;;;4.57;2.77;;;7.10;88.00;;;;;;5052978;28;20187;-74
2023/12/14 05:08:39;;;;;;;11.33;3.30;;;7.00;88.00;;;;;;5052530;28;20207;-73
2023/12/14 05:11:04;;;;;;;8.63;3.20;;;7.00;88.30;;;;;;5038104;28;20614;-73
2023/12/14 05:13:30;;;;;;;6.03;3.60;;;7.10;88.40;;;;;;5041297;28;20276;-72
2023/12/14 05:15:59;;;;;;;6.23;3.93;;;7.10;88.30;;;;;;5050187;28;20187;-73
2023/12/14 05:18:24;;;;;;;7.30;3.97;;;7.10;88.30;;;;;;5045101;28;20506;-72
2023/12/14 05:20:51;;;;;;;7.67;3.80;;;7.00;88.30;;;;;;5034528;28;20475;-71
2023/12/14 05:23:16;;;;;;;6.47;3.60;;;7.10;88.40;;;;;;5043033;28;20181;-73
2023/12/14 05:25:42;;;;;;;8.10;3.83;;;7.10;88.30;;;;;;5049615;28;20498;-75
2023/12/14 05:28:07;;;;;;;10.60;4.47;;;7.10;88.10;;;;;;5045960;28;20749;-73
2023/12/14 05:30:33;;;;;;;9.37;4.27;;;7.10;88.30;;;;;;5040972;28;20229;-72
2023/12/14 05:32:58;;;;;;;8.37;4.60;;;7.10;88.40;;;;;;5046485;28;20188;-72
2023/12/14 05:35:24;;;;;;;9.10;4.67;;;7.10;88.40;;;;;;5046244;28;20185;-73
2023/12/14 05:37:50;;;;;;;10.47;4.33;;;7.20;88.60;;;;;;5047234;28;20192;-73
2023/12/14 05:40:15;;;;;;;7.17;4.20;;;7.20;88.40;;;;;;5062465;28;20322;-72
2023/12/14 05:42:41;;;;;;;9.83;5.90;;;7.20;88.10;;;;;;5051087;28;20185;-73
2023/12/14 05:45:07;;;;;;;8.93;4.50;;;7.20;88.10;;;;;;5049113;28;20184;-73
2023/12/14 05:47:34;;;;;;;10.37;4.20;;;7.20;88.00;;;;;;5049928;28;20242;-73
2023/12/14 05:50:00;;;;;;;6.97;4.33;;;7.10;88.00;;;;;;5047225;28;20520;-74
2023/12/14 05:52:26;;;;;;;7.93;4.63;;;7.10;88.10;;;;;;5055655;28;20422;-74
2023/12/14 05:54:52;;;;;;;15.90;5.57;;;7.10;88.40;;;;;;5046999;28;20520;-73
2023/12/14 05:57:17;;;;;;;10.57;4.73;;;7.10;88.70;;;;;;5044372;28;20181;-73
2023/12/14 05:59:43;;;;;;;10.50;5.50;;;7.10;89.20;;;;;;5039630;28;20286;-73
2023/12/14 06:02:09;;;;;;;11.57;6.23;;;7.10;89.30;;;;;;5041134;28;20189;-74
2023/12/14 06:04:34;;;;;;;11.10;5.17;;;7.10;89.60;;;;;;5045254;28;20246;-74
2023/12/14 06:07:00;;;;;;;6.97;4.80;;;7.00;89.70;;;;;;5049552;28;20428;-72
2023/12/14 06:09:33;;;;;;;10.13;5.60;;;7.00;89.90;;;;;;5041858;28;20221;-74
2023/12/14 06:12:00;;;;;;;12.17;5.20;;;7.00;90.00;;;;;;5037447;28;20187;-74
2023/12/14 06:14:26;;;;;;;9.20;5.00;;;7.00;90.10;;;;;;5045119;28;20514;-74
2023/12/14 06:16:51;;;;;;;9.00;5.20;;;7.00;90.10;;;;;;5045758;28;20829;-72
2023/12/14 06:19:17;;;;;;;7.80;4.57;;;7.10;90.20;;;;;;5044025;28;20192;-73
2023/12/14 06:21:43;;;;;;;10.20;5.10;;;7.10;90.20;;;;;;5040296;28;20857;-74
2023/12/14 06:24:08;;;;;;;8.30;4.13;;;7.10;90.10;;;;;;5042455;28;20176;-73
2023/12/14 06:26:34;;;;;;;10.87;4.73;;;7.10;90.10;;;;;;5051044;28;20188;-74
2023/12/14 06:28:59;;;;;;;8.20;5.13;;;7.10;90.00;;;;;;5046467;28;20213;-74
2023/12/14 06:31:25;;;;;;;7.03;5.27;;;7.10;90.00;;;;;;5046181;28;20237;-75
2023/12/14 06:33:52;;;;;;;8.03;4.40;;;7.10;90.00;;;;;;5047778;28;20184;-73
2023/12/14 06:36:17;;;;;;;9.17;4.43;;;7.10;90.00;;;;;;5048677;28;20181;-74
2023/12/14 06:38:43;;;;;;;12.63;4.80;;;7.20;90.00;;;;;;5048334;28;20550;-74
2023/12/14 06:41:18;;;;;;;6.63;4.30;;;7.10;89.90;;;;;;5040012;28;20624;-74
2023/12/14 06:43:44;;;;;;;8.20;4.77;;;7.10;89.70;;;;;;5041611;28;20435;-73
2023/12/14 06:46:09;;;;;;;9.40;4.53;;;7.20;89.60;;;;;;5053147;28;20806;-74
2023/12/14 06:48:35;;;;;;;11.87;4.97;;;7.20;89.60;;;;;;5053833;28;20250;-72
2023/12/14 06:51:00;;;;;;;9.30;4.80;;;7.20;89.30;;;;;;5041793;28;20224;-74
2023/12/14 06:53:26;;;;;;;9.67;4.33;;;7.20;89.30;;;;;;5038729;28;20196;-74
2023/12/14 06:55:52;;;;;;;10.63;5.07;;;7.20;89.20;;;;;;5048346;28;20211;-74
2023/12/14 06:58:18;;;;;;;12.10;5.40;;;7.30;89.00;;;;;;5042084;28;20283;-76
2023/12/14 07:00:43;;;;;;;12.83;5.57;;;7.30;88.90;;;;;;5042305;28;20280;-75
2023/12/14 07:03:09;;;;;;;9.13;4.70;;;7.30;89.00;;;;;;5046082;28;20427;-74
2023/12/14 07:05:34;;;;;;;10.53;5.40;;;7.30;88.70;;;;;;5047128;28;20192;-75
2023/12/14 07:08:00;;;;;;;13.87;5.03;;;7.40;88.70;;;;;;5036454;28;20247;-74
2023/12/14 07:10:26;;;;;;;8.03;5.03;;;7.40;88.70;;;;;;5040032;28;20335;-73
2023/12/14 07:12:52;;;;;;;8.80;4.90;;;7.50;88.60;;;;;;5044185;28;20462;-74
2023/12/14 07:15:18;;;;;;;10.73;5.27;;;7.50;88.30;;;;;;5041027;28;20269;-74
2023/12/14 07:17:44;;;;;;;9.07;4.77;;;7.50;88.10;;;;;;5047728;28;20485;-74
2023/12/14 07:20:11;;;;;;;9.50;5.20;;;7.50;88.00;;;;;;5037457;28;20466;-75
2023/12/14 07:22:36;;;;;;;11.07;5.70;;;7.50;87.80;;;;;;5044423;28;20699;-73
2023/12/14 07:25:03;;;;;;;10.37;5.33;;;7.50;88.00;;;;;;5038800;28;20419;-73
2023/12/14 07:27:29;;;;;;;11.17;5.90;;;7.50;88.00;;;;;;5046168;28;20192;-75
2023/12/14 07:29:54;;;;;;;8.57;5.17;;;7.50;88.00;;;;;;5038604;28;21025;-74
2023/12/14 07:32:21;;;;;;;15.60;5.00;;;7.50;87.80;;;;;;5045531;28;20196;-73
2023/12/14 07:34:47;;;;;;;9.73;5.23;;;7.50;87.70;;;;;;5037696;28;20424;-73
2023/12/14 07:37:12;;;;;;;8.40;4.53;;;7.50;87.80;;;;;;5048289;28;20458;-74
2023/12/14 07:39:38;;;;;;;8.60;4.50;;;7.50;88.00;;;;;;5042219;28;20549;-72
2023/12/14 07:42:05;;;;;;;7.47;4.00;;;7.50;87.80;;;;;;5040510;28;20192;-73
2023/12/14 07:44:30;;;;;;;8.87;4.83;;;7.50;87.80;;;;;;5043389;28;20280;-73
2023/12/14 07:46:58;;;;;;;10.33;4.80;;;7.50;87.80;;;;;;5049414;28;20473;-72
2023/12/14 07:49:23;;;;;;;11.47;4.10;;;7.40;87.80;;;;;;5035635;28;20217;-72
2023/12/14 07:51:50;;;;;;;7.27;4.30;;;7.40;87.80;;;;;;5052762;28;20913;-74
2023/12/14 07:54:16;;;;;;;8.37;4.40;;;7.40;88.00;;;;;;5037898;28;20428;-74
2023/12/14 07:56:41;;;;;;;9.30;3.97;;;7.40;88.00;;;;;;5045739;28;20193;-80
2023/12/14 07:59:07;;;;;;;9.00;4.50;;;7.40;88.00;;;;;;5048849;28;20201;-81
2023/12/14 08:01:34;;;;;;;6.73;3.90;;;7.50;88.10;;;;;;5047929;28;20213;-81
2023/12/14 08:04:02;;;;;;;9.30;4.57;;;7.50;88.00;;;;;;5048591;28;20848;-81
2023/12/14 08:06:29;;;;;;;9.00;4.30;;;7.50;88.10;;;;;;5061412;28;20434;-81
2023/12/14 08:08:57;;;;;;;9.93;4.60;;;7.50;88.10;;;;;;5051668;28;20459;-80
2023/12/14 08:11:24;;;;;;;8.07;4.87;;;7.60;88.10;;;;;;5051454;28;20550;-80
2023/12/14 08:13:49;;;;;;;9.80;4.57;;;7.60;88.00;;;;;;5064457;28;20428;-79
2023/12/14 08:16:17;;;;;;;8.83;4.60;;;7.50;87.80;;;;;;5063025;28;20428;-80
2023/12/14 08:18:44;;;;;;;7.73;4.13;;;7.70;88.10;;;;;;5070448;28;20204;-80
2023/12/14 08:21:10;;;;;;;7.00;4.10;;;7.70;88.00;;;;;;5066505;28;20475;-80
2023/12/14 08:23:36;;;;;;;8.27;4.50;;;7.70;87.60;;;;;;5081752;28;20462;-80
2023/12/14 08:26:02;;;;;;;7.30;4.40;;;7.70;87.40;;;;;;5080342;28;20207;-81
2023/12/14 08:28:28;;;;;;;8.43;4.90;;;7.70;87.60;;;;;;5063610;28;20422;-80
2023/12/14 08:30:53;;;;;;;10.23;4.47;;;7.80;87.60;;;;;;5070937;28;20208;-80
2023/12/14 08:33:19;;;;;;;9.10;4.73;;;7.80;87.60;;;;;;5058944;28;20193;-81
2023/12/14 08:35:46;;;;;;;11.23;4.60;;;7.80;87.40;;;;;;5072738;28;20184;-80
2023/12/14 08:38:12;;;;;;;8.50;4.67;;;7.80;87.60;;;;;;5067177;28;20283;-79
2023/12/14 08:40:38;;;;;;;8.13;4.03;;;7.80;87.40;;;;;;5046248;28;20460;-76
2023/12/14 08:43:04;;;;;;;9.83;5.13;;;7.80;87.30;;;;;;5037427;28;20189;-75
2023/12/14 08:45:30;;;;;;;9.93;5.50;;;7.80;87.30;;;;;;5036501;28;20481;-75
2023/12/14 08:47:56;;;;;;;9.53;5.37;;;7.90;87.30;;;;;;5046733;28;20882;-75
2023/12/14 08:50:21;;;;;;;11.27;5.97;;;7.90;87.30;;;;;;5037426;28;20932;-76
2023/12/14 08:52:47;;;;;;;10.93;5.87;;;7.90;87.10;;;;;;5040266;28;20421;-75
2023/12/14 08:55:14;;;;;;;10.30;5.53;;;8.00;87.00;;;;;;5044338;28;20196;-74
2023/12/14 08:57:39;;;;;;;10.07;5.03;;;8.00;86.90;;;;;;5043262;28;20422;-76
2023/12/14 09:00:06;;;;;;;10.93;5.10;;;8.00;86.80;;;;;;5029812;28;20460;-76
2023/12/14 09:02:32;;;;;;;12.97;6.27;;;8.00;86.60;;;;;;5039455;28;20184;-76
2023/12/14 09:04:58;;;;;;;12.93;5.73;;;8.00;86.50;;;;;;5038902;28;20423;-75
2023/12/14 09:07:24;;;;;;;11.53;6.10;;;8.00;86.50;;;;;;5040176;28;20428;-75
2023/12/14 09:09:50;;;;;;;15.53;6.80;;;7.90;86.60;;;;;;5031361;28;20574;-76
2023/12/14 09:12:16;;;;;;;12.30;5.93;;;7.90;86.80;;;;;;5039013;28;20208;-75
2023/12/14 09:14:41;;;;;;;18.17;5.87;;;8.00;86.80;;;;;;5041511;28;20467;-75
2023/12/14 09:17:07;;;;;;;10.03;5.60;;;8.00;86.80;;;;;;5040143;28;20172;-75
2023/12/14 09:19:33;;;;;;;13.47;6.97;;;8.10;86.80;;;;;;5035103;28;20204;-74
2023/12/14 09:21:58;;;;;;;15.63;7.63;;;8.10;86.50;;;;;;5040084;28;20560;-75
2023/12/14 09:24:24;;;;;;;11.17;6.30;;;8.10;86.30;;;;;;5049004;28;20315;-75
2023/12/14 09:26:50;;;;;;;15.80;6.17;;;8.10;86.30;;;;;;5040991;28;20200;-75
2023/12/14 09:29:16;;;;;;;13.70;5.90;;;8.20;86.50;;;;;;5046187;28;20205;-75
2023/12/14 09:31:45;;;;;;;11.70;6.00;;;8.10;86.30;;;;;;5037068;28;20276;-75
2023/12/14 09:34:11;;;;;;;10.83;6.00;;;8.10;86.30;;;;;;5047975;28;20545;-76
2023/12/14 09:36:38;;;;;;;10.03;6.10;;;8.20;86.60;;;;;;5036803;28;20495;-74
2023/12/14 09:39:05;;;;;;;10.20;5.50;;;8.20;86.50;;;;;;5037941;28;20419;-76
2023/12/14 09:41:30;;;;;;;10.53;5.57;;;8.30;86.60;;;;;;5040882;28;21002;-74
2023/12/14 09:43:56;;;;;;;17.67;7.30;;;8.30;86.50;;;;;;5042636;28;20416;-75
2023/12/14 09:46:24;;;;;;;10.90;6.33;;;8.20;86.30;;;;;;5040446;28;20181;-75
2023/12/14 09:48:50;;;;;;;12.10;6.53;;;8.20;86.50;;;;;;5045681;28;20247;-75
2023/12/14 09:51:16;;;;;;;21.03;7.07;;;8.30;86.80;;;;;;5043937;28;20473;-75
2023/12/14 09:53:42;;;;;;;21.17;7.83;;;8.40;86.80;;;;;;5044348;28;20443;-76
2023/12/14 09:56:08;;;;;;;13.90;5.87;;;8.40;86.50;;;;;;5044271;28;20943;-77
2023/12/14 09:58:34;;;;;;;15.33;7.00;;;8.40;86.50;;;;;;5046475;28;20440;-76
2023/12/14 10:01:01;;;;;;;14.53;6.47;;;8.40;86.20;;;;;;5037713;28;20270;-76
2023/12/14 10:03:28;;;;;;;16.67;7.03;;;8.50;86.60;;;;;;5047091;28;20637;-75
2023/12/14 10:05:55;;;;;;;14.53;7.73;;;8.50;86.50;;;;;;5043095;28;21025;-74
2023/12/14 10:08:21;;;;;;;16.37;7.97;;;8.60;86.20;;;;;;5049331;28;20501;-74
2023/12/14 10:10:49;;;;;;;16.37;8.33;;;8.60;85.90;;;;;;5041536;28;20521;-74
2023/12/14 10:13:15;;;;;;;18.67;7.93;;;8.70;86.00;;;;;;5042196;28;20435;-75
2023/12/14 10:15:42;;;;;;;15.60;7.53;;;8.70;85.90;;;;;;5050365;28;20431;-75
2023/12/14 10:18:08;;;;;;;12.87;7.40;;;8.80;85.70;;;;;;5052764;28;20184;-76
2023/12/14 10:20:33;;;;;;;15.93;7.53;;;8.90;85.70;;;;;;5044094;28;20456;-74
2023/12/14 10:22:59;;;;;;;12.10;7.20;;;8.90;85.50;;;;;;5040584;28;20188;-75
2023/12/14 10:25:25;;;;;;;15.90;7.47;;;8.90;85.30;;;;;;5049604;28;20272;-75
2023/12/14 10:27:52;;;;;;;11.80;6.40;;;9.00;85.60;;;;;;5041286;28;20294;-76
2023/12/14 10:30:19;;;;;;;17.03;7.00;;;9.00;85.20;;;;;;5041242;28;20491;-75
2023/12/14 10:32:47;;;;;;;16.77;7.47;;;9.10;84.60;;;;;;5039275;28;20436;-76
2023/12/14 10:35:15;;;;;;;15.53;7.10;;;9.20;84.60;;;;;;5044822;28;20419;-76
2023/12/14 10:37:42;;;;;;;15.80;6.73;;;9.30;84.60;;;;;;5055552;28;20416;-75
2023/12/14 10:40:10;;;;;;;15.10;7.07;;;9.40;84.30;;;;;;5045405;28;20463;-76
2023/12/14 10:42:36;;;;;;;12.67;6.57;;;9.50;83.70;;;;;;5049781;28;20415;-75
2023/12/14 10:45:03;;;;;;;15.00;7.07;;;9.50;83.40;;;;;;5050510;28;20506;-75
2023/12/14 10:47:29;;;;;;;11.40;6.00;;;9.50;83.40;;;;;;5040907;28;20432;-75
2023/12/14 10:49:56;;;;;;;12.83;6.30;;;9.50;82.70;;;;;;5050675;28;20901;-75
2023/12/14 10:52:23;;;;;;;15.20;7.10;;;9.50;81.90;;;;;;5046239;28;20954;-75
2023/12/14 10:55:03;;;;;;;19.37;6.73;;;9.30;81.50;;;;;;5047270;28;20466;-76
2023/12/14 10:57:29;;;;;;;17.47;8.50;;;9.20;82.50;;;;;;5045796;28;20519;-75
2023/12/14 10:59:59;;;;;;;12.90;7.00;;;9.00;83.40;;;;;;5056448;28;21039;-75
2023/12/14 11:02:25;;;;;;;14.97;7.57;;;9.10;83.70;;;;;;5039348;28;20189;-75
2023/12/14 11:05:09;;;;;;;16.40;7.30;;;9.20;83.60;;;;;;5046685;28;21056;-75
2023/12/14 11:07:54;;;;;;;17.27;7.90;;;9.30;82.80;;;;;;5038426;28;20583;-74
2023/12/14 11:10:36;;;;;;;13.30;5.77;;;9.20;82.80;;;;;;5036290;28;20809;-76
2023/12/14 11:13:06;;;;;;;11.03;5.80;;;9.20;83.00;;;;;;5034216;28;21046;-76
2023/12/14 11:15:34;;;;;;;11.30;6.77;;;9.20;82.70;;;;;;5047221;28;20415;-75
2023/12/14 11:18:11;;;;;;;17.03;7.27;;;9.20;82.80;;;;;;5045026;28;20486;-74
2023/12/14 11:20:46;;;;;;;10.40;5.57;;;9.30;82.80;;;;;;5038053;28;20871;-76
2023/12/14 11:23:26;;;;;;;12.07;5.73;;;9.50;82.40;;;;;;5040681;28;20481;-74
2023/12/14 11:25:54;;;;;;;14.27;6.87;;;9.40;81.70;;;;;;5038155;28;20473;-75
2023/12/14 11:28:20;;;;;;;11.80;6.17;;;9.40;81.70;;;;;;5040729;28;20418;-74
2023/12/14 11:30:46;;;;;;;15.17;7.37;;;9.30;81.90;;;;;;5043782;28;20562;-75
2023/12/14 11:33:13;;;;;;;13.43;6.60;;;9.30;82.20;;;;;;5041132;28;20939;-75
2023/12/14 11:35:38;;;;;;;12.73;6.87;;;9.10;82.80;;;;;;5045629;28;20429;-75
2023/12/14 11:38:10;;;;;;;13.97;7.50;;;9.10;83.60;;;;;;5042289;28;20825;-75
2023/12/14 11:40:45;;;;;;;17.23;8.20;;;9.20;83.70;;;;;;5035614;28;20208;-74
2023/12/14 11:43:11;;;;;;;12.80;7.50;;;9.30;83.70;;;;;;5043198;28;20936;-75
2023/12/14 11:45:38;;;;;;;17.43;8.33;;;9.40;83.70;;;;;;5047694;28;20438;-75
2023/12/14 11:48:05;;;;;;;17.87;9.07;;;9.60;83.70;;;;;;5042713;28;20927;-75
2023/12/14 11:50:33;;;;;;;15.97;7.80;;;9.60;83.40;;;;;;5043202;28;20538;-76
2023/12/14 11:53:00;;;;;;;13.00;7.23;;;9.70;83.40;;;;;;5039982;28;20433;-76
2023/12/14 11:55:26;;;;;;;17.27;7.73;;;9.80;83.30;;;;;;5040784;28;21317;-75
2023/12/14 11:57:53;;;;;;;15.30;7.40;;;9.80;83.10;;;;;;5036801;28;20434;-75
2023/12/14 12:00:22;;;;;;;17.33;7.87;;;9.50;82.20;;;;;;5041786;28;20524;-75
2023/12/14 12:02:48;;;;;;;15.03;6.20;;;9.40;82.70;;;;;;5047718;28;20411;-75
2023/12/14 12:05:18;;;;;;;12.23;6.50;;;9.50;82.20;;;;;;5044303;28;20426;-74
2023/12/14 12:07:46;;;;;;;7.93;5.53;;;9.40;81.40;;;;;;5032328;28;20196;-75
2023/12/14 12:10:12;;;;;;;13.30;5.80;;;9.40;81.40;;;;;;5045073;28;20511;-74
2023/12/14 12:12:38;;;;;;;10.07;5.47;;;9.40;81.20;;;;;;5041079;28;20451;-75
2023/12/14 12:15:04;;;;;;;9.20;5.30;;;9.40;80.50;;;;;;5046980;28;20184;-75
2023/12/14 12:17:37;;;;;;;6.53;3.60;;;9.50;80.20;;;;;;5041585;28;20187;-76
2023/12/14 12:20:04;;;;;;;4.43;2.97;;;9.60;80.20;;;;;;5054530;28;20476;-74
2023/12/14 12:22:30;;;;;;;5.20;2.60;;;9.60;77.80;;;;;;5059209;28;20429;-76
2023/12/14 12:24:56;;;;;;;7.90;3.00;;;9.60;76.70;;;;;;5045884;28;20423;-76
2023/12/14 12:27:22;;;;;;;4.57;3.10;;;9.60;76.40;;;;;;5051260;28;20188;-74
2023/12/14 12:29:50;;;;;;;9.03;2.87;;;9.60;75.90;;;;;;5046911;28;20479;-75
2023/12/14 12:32:15;;;;;;;8.40;3.13;;;9.50;76.10;;;;;;5035903;28;20420;-75
2023/12/14 12:34:41;;;;;;;6.90;3.30;;;9.50;76.50;;;;;;5045754;28;20430;-75
2023/12/14 12:37:07;;;;;;;8.40;3.80;;;9.50;76.50;;;;;;5040413;28;20185;-75
2023/12/14 12:39:32;;;;;;;6.40;3.00;;;9.30;75.50;;;;;;5039377;28;20258;-75
2023/12/14 12:41:58;;;;;;;4.63;2.80;;;9.10;76.20;;;;;;5037787;28;20570;-75
2023/12/14 12:44:23;;;;;;;5.97;2.50;;;9.20;76.10;;;;;;5043927;28;20535;-74
2023/12/14 12:46:49;;;;;;;3.10;2.10;;;9.20;75.80;;;;;;5044890;28;20192;-74
2023/12/14 12:49:15;;;;;;;4.70;2.60;;;9.10;74.80;;;;;;5045549;28;20747;-75